sensor_id;sensor_type;location;lat;lon;timestamp;pressure;altitude;pressure_sealevel;temperature;humidity
35649;BME280;21768;48.562;13.414;2023-03-15T00:02:04;96546.59;;;7.64;55.99
35649;BME280;21768;48.562;13.414;2023-03-15T00:04:30;96549.09;;;7.64;56.08
35649;BME280;21768;48.562;13.414;2023-03-15T00:06:57;96548.31;;;7.65;56.30
35649;BME280;21768;48.562;13.414;2023-03-15T00:09:22;96547.72;;;7.69;56.24
35649;BME280;21768;48.562;13.414;2023-03-15T00:11:49;96554.47;;;7.70;56.29
35649;BME280;21768;48.562;13.414;2023-03-15T00:14:14;96552.91;;;7.72;56.43
35649;BME280;21768;48.562;13.414;2023-03-15T00:16:41;96553.13;;;7.75;56.04
35649;BME280;21768;48.562;13.414;2023-03-15T00:19:07;96551.38;;;7.74;56.42
35649;BME280;21768;48.562;13.414;2023-03-15T00:21:33;96555.44;;;7.72;56.28
35649;BME280;21768;48.562;13.414;2023-03-15T00:23:59;96559.69;;;7.73;56.26
35649;BME280;21768;48.562;13.414;2023-03-15T00:26:24;96566.63;;;7.77;56.12
35649;BME280;21768;48.562;13.414;2023-03-15T00:28:49;96555.03;;;7.79;56.09
35649;BME280;21768;48.562;13.414;2023-03-15T00:31:21;96558.31;;;7.78;56.18
35649;BME280;21768;48.562;13.414;2023-03-15T00:33:47;96552.44;;;7.78;56.01
35649;BME280;21768;48.562;13.414;2023-03-15T00:36:13;96556.19;;;7.71;56.02
35649;BME280;21768;48.562;13.414;2023-03-15T00:38:40;96557.41;;;7.63;56.47
35649;BME280;21768;48.562;13.414;2023-03-15T00:41:12;96557.78;;;7.56;56.37
35649;BME280;21768;48.562;13.414;2023-03-15T00:43:38;96559.13;;;7.51;56.57
35649;BME280;21768;48.562;13.414;2023-03-15T00:46:04;96557.75;;;7.43;57.02
35649;BME280;21768;48.562;13.414;2023-03-15T00:48:30;96561.56;;;7.36;57.14
35649;BME280;21768;48.562;13.414;2023-03-15T00:51:08;96561.25;;;7.32;57.61
35649;BME280;21768;48.562;13.414;2023-03-15T00:53:35;96564.44;;;7.29;57.36
35649;BME280;21768;48.562;13.414;2023-03-15T00:56:16;96556.13;;;7.30;57.50
35649;BME280;21768;48.562;13.414;2023-03-15T00:58:43;96565.09;;;7.27;57.22
35649;BME280;21768;48.562;13.414;2023-03-15T01:01:11;96562.09;;;7.19;57.63
35649;BME280;21768;48.562;13.414;2023-03-15T01:03:37;96565.88;;;7.12;57.57
35649;BME280;21768;48.562;13.414;2023-03-15T01:06:08;96568.00;;;7.06;57.76
35649;BME280;21768;48.562;13.414;2023-03-15T01:08:34;96562.78;;;7.03;57.95
35649;BME280;21768;48.562;13.414;2023-03-15T01:11:04;96577.72;;;7.02;58.23
35649;BME280;21768;48.562;13.414;2023-03-15T01:13:30;96563.53;;;7.02;57.92
35649;BME280;21768;48.562;13.414;2023-03-15T01:15:56;96565.28;;;7.03;57.87
35649;BME280;21768;48.562;13.414;2023-03-15T01:18:21;96556.78;;;7.01;58.07
35649;BME280;21768;48.562;13.414;2023-03-15T01:20:46;96559.19;;;7.00;58.09
35649;BME280;21768;48.562;13.414;2023-03-15T01:23:12;96550.50;;;6.95;58.35
35649;BME280;21768;48.562;13.414;2023-03-15T01:25:37;96564.50;;;6.91;58.50
35649;BME280;21768;48.562;13.414;2023-03-15T01:28:02;96562.75;;;6.90;58.84
35649;BME280;21768;48.562;13.414;2023-03-15T01:30:28;96555.72;;;6.85;58.72
35649;BME280;21768;48.562;13.414;2023-03-15T01:32:53;96558.31;;;6.86;58.74
35649;BME280;21768;48.562;13.414;2023-03-15T01:35:18;96550.91;;;6.88;58.83
35649;BME280;21768;48.562;13.414;2023-03-15T01:37:44;96551.34;;;6.82;58.81
35649;BME280;21768;48.562;13.414;2023-03-15T01:40:12;96553.66;;;6.79;59.00
35649;BME280;21768;48.562;13.414;2023-03-15T01:48:15;96546.53;;;6.85;59.15
35649;BME280;21768;48.562;13.414;2023-03-15T01:50:41;96545.78;;;6.86;58.99
35649;BME280;21768;48.562;13.414;2023-03-15T01:53:08;96547.41;;;6.86;59.07
35649;BME280;21768;48.562;13.414;2023-03-15T01:55:34;96544.91;;;6.86;58.86
35649;BME280;21768;48.562;13.414;2023-03-15T01:57:59;96542.09;;;6.81;59.03
35649;BME280;21768;48.562;13.414;2023-03-15T02:00:26;96538.53;;;6.77;59.01
35649;BME280;21768;48.562;13.414;2023-03-15T02:02:56;96541.50;;;6.72;59.05
35649;BME280;21768;48.562;13.414;2023-03-15T02:05:26;96543.03;;;6.70;59.24
35649;BME280;21768;48.562;13.414;2023-03-15T02:07:53;96537.06;;;6.68;59.24
35649;BME280;21768;48.562;13.414;2023-03-15T02:10:47;96533.78;;;6.69;59.20
35649;BME280;21768;48.562;13.414;2023-03-15T02:13:17;96537.13;;;6.69;59.17
35649;BME280;21768;48.562;13.414;2023-03-15T02:15:43;96524.44;;;6.66;58.88
35649;BME280;21768;48.562;13.414;2023-03-15T02:18:14;96542.09;;;6.68;59.32
35649;BME280;21768;48.562;13.414;2023-03-15T02:20:50;96543.72;;;6.67;59.38
35649;BME280;21768;48.562;13.414;2023-03-15T02:23:20;96544.59;;;6.68;59.45
35649;BME280;21768;48.562;13.414;2023-03-15T02:28:38;96542.56;;;6.75;59.70
35649;BME280;21768;48.562;13.414;2023-03-15T02:31:04;96562.34;;;6.84;59.65
35649;BME280;21768;48.562;13.414;2023-03-15T02:33:50;96563.63;;;6.91;59.11
35649;BME280;21768;48.562;13.414;2023-03-15T02:36:25;96566.31;;;6.94;59.18
35649;BME280;21768;48.562;13.414;2023-03-15T02:38:52;96565.53;;;6.95;59.10
35649;BME280;21768;48.562;13.414;2023-03-15T02:41:27;96574.69;;;6.94;59.16
35649;BME280;21768;48.562;13.414;2023-03-15T02:43:58;96568.16;;;6.96;59.14
35649;BME280;21768;48.562;13.414;2023-03-15T02:46:26;96571.44;;;6.95;59.31
35649;BME280;21768;48.562;13.414;2023-03-15T02:48:52;96580.78;;;6.98;59.48
35649;BME280;21768;48.562;13.414;2023-03-15T02:51:20;96581.84;;;7.01;59.57
35649;BME280;21768;48.562;13.414;2023-03-15T02:53:47;96582.94;;;7.05;59.74
35649;BME280;21768;48.562;13.414;2023-03-15T02:56:12;96584.00;;;7.08;59.43
35649;BME280;21768;48.562;13.414;2023-03-15T02:58:38;96590.56;;;7.06;59.57
35649;BME280;21768;48.562;13.414;2023-03-15T03:01:04;96587.06;;;7.04;59.65
35649;BME280;21768;48.562;13.414;2023-03-15T03:03:29;96588.50;;;7.01;59.57
35649;BME280;21768;48.562;13.414;2023-03-15T03:05:54;96593.22;;;6.96;59.70
35649;BME280;21768;48.562;13.414;2023-03-15T03:08:20;96594.59;;;6.91;60.02
35649;BME280;21768;48.562;13.414;2023-03-15T03:10:45;96596.78;;;6.87;60.26
35649;BME280;21768;48.562;13.414;2023-03-15T03:13:10;96607.69;;;6.87;60.43
35649;BME280;21768;48.562;13.414;2023-03-15T03:15:36;96597.88;;;6.90;60.46
35649;BME280;21768;48.562;13.414;2023-03-15T03:18:02;96605.47;;;6.92;60.50
35649;BME280;21768;48.562;13.414;2023-03-15T03:20:27;96605.38;;;6.90;60.41
35649;BME280;21768;48.562;13.414;2023-03-15T03:22:53;96611.94;;;6.88;60.57
35649;BME280;21768;48.562;13.414;2023-03-15T03:25:20;96608.56;;;6.88;60.70
35649;BME280;21768;48.562;13.414;2023-03-15T03:27:46;96624.66;;;6.91;60.86
35649;BME280;21768;48.562;13.414;2023-03-15T03:30:12;96621.56;;;6.95;60.88
35649;BME280;21768;48.562;13.414;2023-03-15T03:32:41;96634.69;;;6.91;60.88
35649;BME280;21768;48.562;13.414;2023-03-15T03:35:07;96635.81;;;6.83;60.86
35649;BME280;21768;48.562;13.414;2023-03-15T03:37:33;96637.34;;;6.81;61.02
35649;BME280;21768;48.562;13.414;2023-03-15T03:40:00;96644.09;;;6.82;61.24
35649;BME280;21768;48.562;13.414;2023-03-15T03:42:25;96656.75;;;6.83;61.15
35649;BME280;21768;48.562;13.414;2023-03-15T03:44:50;96661.19;;;6.88;61.52
35649;BME280;21768;48.562;13.414;2023-03-15T03:47:18;96674.81;;;6.91;61.29
35649;BME280;21768;48.562;13.414;2023-03-15T03:49:43;96698.31;;;6.93;61.40
35649;BME280;21768;48.562;13.414;2023-03-15T03:52:09;96696.19;;;6.86;61.59
35649;BME280;21768;48.562;13.414;2023-03-15T03:54:34;96691.38;;;6.89;61.64
35649;BME280;21768;48.562;13.414;2023-03-15T03:56:59;96696.63;;;6.92;61.86
35649;BME280;21768;48.562;13.414;2023-03-15T03:59:25;96697.56;;;6.94;61.93
35649;BME280;21768;48.562;13.414;2023-03-15T04:01:50;96698.44;;;6.95;62.13
35649;BME280;21768;48.562;13.414;2023-03-15T04:04:15;96708.56;;;6.96;62.26
35649;BME280;21768;48.562;13.414;2023-03-15T04:06:41;96715.22;;;6.96;62.46
35649;BME280;21768;48.562;13.414;2023-03-15T04:09:11;96714.94;;;6.91;62.62
35649;BME280;21768;48.562;13.414;2023-03-15T04:11:38;96714.72;;;6.88;62.72
35649;BME280;21768;48.562;13.414;2023-03-15T04:14:03;96721.38;;;6.88;63.02
35649;BME280;21768;48.562;13.414;2023-03-15T04:16:29;96723.22;;;6.90;62.70
35649;BME280;21768;48.562;13.414;2023-03-15T04:18:54;96728.34;;;6.92;63.09
35649;BME280;21768;48.562;13.414;2023-03-15T04:21:20;96733.25;;;6.90;63.07
35649;BME280;21768;48.562;13.414;2023-03-15T04:23:47;96733.69;;;6.85;63.29
35649;BME280;21768;48.562;13.414;2023-03-15T04:26:12;96723.44;;;6.81;63.34
35649;BME280;21768;48.562;13.414;2023-03-15T04:28:38;96740.78;;;6.78;63.40
35649;BME280;21768;48.562;13.414;2023-03-15T04:31:04;96744.38;;;6.82;63.74
35649;BME280;21768;48.562;13.414;2023-03-15T04:33:34;96745.91;;;6.80;63.69
35649;BME280;21768;48.562;13.414;2023-03-15T04:36:00;96753.22;;;6.77;64.03
35649;BME280;21768;48.562;13.414;2023-03-15T04:38:27;96763.13;;;6.75;64.48
35649;BME280;21768;48.562;13.414;2023-03-15T04:40:53;96768.41;;;6.67;64.69
35649;BME280;21768;48.562;13.414;2023-03-15T04:43:21;96783.13;;;6.62;64.84
35649;BME280;21768;48.562;13.414;2023-03-15T04:45:48;96794.34;;;6.56;64.79
35649;BME280;21768;48.562;13.414;2023-03-15T04:48:14;96804.59;;;6.47;65.09
35649;BME280;21768;48.562;13.414;2023-03-15T04:50:39;96799.34;;;6.44;65.39
35649;BME280;21768;48.562;13.414;2023-03-15T04:53:04;96817.25;;;6.37;65.28
35649;BME280;21768;48.562;13.414;2023-03-15T04:55:30;96810.25;;;6.33;65.30
35649;BME280;21768;48.562;13.414;2023-03-15T04:57:55;96824.75;;;6.25;64.90
35649;BME280;21768;48.562;13.414;2023-03-15T05:00:21;96834.88;;;6.15;64.83
35649;BME280;21768;48.562;13.414;2023-03-15T05:02:47;96846.94;;;6.09;64.83
35649;BME280;21768;48.562;13.414;2023-03-15T05:05:19;96854.41;;;5.97;64.58
35649;BME280;21768;48.562;13.414;2023-03-15T05:07:45;96856.13;;;5.87;64.78
35649;BME280;21768;48.562;13.414;2023-03-15T05:10:10;96867.94;;;5.77;65.04
35649;BME280;21768;48.562;13.414;2023-03-15T05:12:36;96878.47;;;5.73;64.64
35649;BME280;21768;48.562;13.414;2023-03-15T05:15:01;96879.78;;;5.68;64.79
35649;BME280;21768;48.562;13.414;2023-03-15T05:17:26;96887.81;;;5.64;65.10
35649;BME280;21768;48.562;13.414;2023-03-15T05:19:52;96896.84;;;5.62;65.18
35649;BME280;21768;48.562;13.414;2023-03-15T05:22:17;96902.59;;;5.61;65.24
35649;BME280;21768;48.562;13.414;2023-03-15T05:24:43;96905.88;;;5.60;65.20
35649;BME280;21768;48.562;13.414;2023-03-15T05:27:09;96914.13;;;5.59;65.28
35649;BME280;21768;48.562;13.414;2023-03-15T05:29:36;96930.66;;;5.57;65.27
35649;BME280;21768;48.562;13.414;2023-03-15T05:32:01;96939.78;;;5.57;65.32
35649;BME280;21768;48.562;13.414;2023-03-15T05:34:29;96951.28;;;5.55;65.36
35649;BME280;21768;48.562;13.414;2023-03-15T05:36:56;96962.06;;;5.54;65.23
35649;BME280;21768;48.562;13.414;2023-03-15T05:39:22;96966.94;;;5.52;64.95
35649;BME280;21768;48.562;13.414;2023-03-15T05:41:48;96975.50;;;5.44;65.07
35649;BME280;21768;48.562;13.414;2023-03-15T05:44:13;96983.28;;;5.37;65.09
35649;BME280;21768;48.562;13.414;2023-03-15T05:46:39;96981.69;;;5.27;65.38
35649;BME280;21768;48.562;13.414;2023-03-15T05:49:04;96995.69;;;5.25;65.84
35649;BME280;21768;48.562;13.414;2023-03-15T05:51:29;97006.69;;;5.27;65.82
35649;BME280;21768;48.562;13.414;2023-03-15T05:53:55;97013.31;;;5.27;65.84
35649;BME280;21768;48.562;13.414;2023-03-15T05:56:20;97021.97;;;5.20;64.31
35649;BME280;21768;48.562;13.414;2023-03-15T05:58:45;97030.88;;;5.17;63.36
35649;BME280;21768;48.562;13.414;2023-03-15T06:01:11;97035.38;;;5.10;63.40
35649;BME280;21768;48.562;13.414;2023-03-15T06:03:36;97046.25;;;5.11;63.06
35649;BME280;21768;48.562;13.414;2023-03-15T06:06:02;97052.38;;;5.04;63.23
35649;BME280;21768;48.562;13.414;2023-03-15T06:08:28;97059.38;;;4.98;63.50
35649;BME280;21768;48.562;13.414;2023-03-15T06:10:54;97055.81;;;4.95;63.94
35649;BME280;21768;48.562;13.414;2023-03-15T06:13:20;97055.69;;;4.93;63.56
35649;BME280;21768;48.562;13.414;2023-03-15T06:15:46;97053.94;;;4.92;63.75
35649;BME280;21768;48.562;13.414;2023-03-15T06:18:12;97057.31;;;4.93;63.67
35649;BME280;21768;48.562;13.414;2023-03-15T06:20:38;97059.38;;;4.98;63.60
35649;BME280;21768;48.562;13.414;2023-03-15T06:23:04;97060.63;;;5.03;63.67
35649;BME280;21768;48.562;13.414;2023-03-15T06:25:29;97095.00;;;5.06;63.86
35649;BME280;21768;48.562;13.414;2023-03-15T06:27:54;97099.75;;;5.03;63.87
35649;BME280;21768;48.562;13.414;2023-03-15T06:30:22;97108.75;;;5.01;64.31
35649;BME280;21768;48.562;13.414;2023-03-15T06:32:48;97116.28;;;4.91;64.80
35649;BME280;21768;48.562;13.414;2023-03-15T06:35:13;97129.75;;;4.83;65.05
35649;BME280;21768;48.562;13.414;2023-03-15T06:37:38;97133.38;;;4.66;65.59
35649;BME280;21768;48.562;13.414;2023-03-15T06:40:08;97145.38;;;4.60;66.32
35649;BME280;21768;48.562;13.414;2023-03-15T06:42:34;97147.09;;;4.51;66.48
35649;BME280;21768;48.562;13.414;2023-03-15T06:45:00;97155.72;;;4.44;66.61
35649;BME280;21768;48.562;13.414;2023-03-15T06:47:26;97165.19;;;4.38;66.85
35649;BME280;21768;48.562;13.414;2023-03-15T06:49:51;97167.53;;;4.36;66.86
35649;BME280;21768;48.562;13.414;2023-03-15T06:52:17;97165.75;;;4.25;66.89
35649;BME280;21768;48.562;13.414;2023-03-15T06:54:43;97165.34;;;4.21;67.04
35649;BME280;21768;48.562;13.414;2023-03-15T06:57:08;97155.03;;;4.26;66.82
35649;BME280;21768;48.562;13.414;2023-03-15T06:59:34;97160.00;;;4.26;66.94
35649;BME280;21768;48.562;13.414;2023-03-15T07:01:59;97171.00;;;4.28;67.08
35649;BME280;21768;48.562;13.414;2023-03-15T07:04:25;97174.16;;;4.36;67.02
35649;BME280;21768;48.562;13.414;2023-03-15T07:06:50;97179.44;;;4.49;67.13
35649;BME280;21768;48.562;13.414;2023-03-15T07:09:16;97193.34;;;4.66;67.15
35649;BME280;21768;48.562;13.414;2023-03-15T07:11:41;97198.72;;;4.81;66.73
35649;BME280;21768;48.562;13.414;2023-03-15T07:14:06;97197.63;;;4.97;66.71
35649;BME280;21768;48.562;13.414;2023-03-15T07:16:32;97209.03;;;5.14;66.74
35649;BME280;21768;48.562;13.414;2023-03-15T07:18:57;97211.66;;;5.36;66.51
35649;BME280;21768;48.562;13.414;2023-03-15T07:21:24;97210.00;;;5.57;66.14
35649;BME280;21768;48.562;13.414;2023-03-15T07:23:50;97221.75;;;5.58;65.82
35649;BME280;21768;48.562;13.414;2023-03-15T07:26:15;97230.13;;;5.58;65.86
35649;BME280;21768;48.562;13.414;2023-03-15T07:28:40;97240.66;;;5.64;65.57
35649;BME280;21768;48.562;13.414;2023-03-15T07:31:08;97246.13;;;5.80;65.04
35649;BME280;21768;48.562;13.414;2023-03-15T07:33:34;97249.13;;;5.87;64.26
35649;BME280;21768;48.562;13.414;2023-03-15T07:36:00;97258.75;;;6.02;64.28
35649;BME280;21768;48.562;13.414;2023-03-15T07:38:28;97252.09;;;6.13;63.25
35649;BME280;21768;48.562;13.414;2023-03-15T07:40:53;97266.50;;;6.47;63.06
35649;BME280;21768;48.562;13.414;2023-03-15T07:43:20;97267.28;;;6.68;61.83
35649;BME280;21768;48.562;13.414;2023-03-15T07:45:46;97264.34;;;6.84;61.91
35649;BME280;21768;48.562;13.414;2023-03-15T07:48:12;97263.56;;;6.85;61.74
35649;BME280;21768;48.562;13.414;2023-03-15T07:50:38;97268.88;;;7.00;61.16
35649;BME280;21768;48.562;13.414;2023-03-15T07:53:04;97262.78;;;7.30;60.79
35649;BME280;21768;48.562;13.414;2023-03-15T07:55:31;97265.53;;;7.78;58.16
35649;BME280;21768;48.562;13.414;2023-03-15T07:57:56;97268.59;;;8.67;55.22
35649;BME280;21768;48.562;13.414;2023-03-15T08:00:22;97267.19;;;8.71;54.62
35649;BME280;21768;48.562;13.414;2023-03-15T08:02:47;97266.44;;;8.25;55.98
35649;BME280;21768;48.562;13.414;2023-03-15T08:05:13;97264.22;;;7.95;57.16
35649;BME280;21768;48.562;13.414;2023-03-15T08:07:39;97274.06;;;7.80;56.85
35649;BME280;21768;48.562;13.414;2023-03-15T08:10:04;97274.28;;;7.83;57.31
35649;BME280;21768;48.562;13.414;2023-03-15T08:12:31;97259.31;;;9.77;53.74
35649;BME280;21768;48.562;13.414;2023-03-15T08:14:57;97266.91;;;10.17;52.16
35649;BME280;21768;48.562;13.414;2023-03-15T08:17:22;97274.34;;;9.51;51.94
35649;BME280;21768;48.562;13.414;2023-03-15T08:19:48;97274.00;;;9.58;52.58
35649;BME280;21768;48.562;13.414;2023-03-15T08:22:13;97261.41;;;10.09;51.04
35649;BME280;21768;48.562;13.414;2023-03-15T08:24:39;97258.94;;;11.46;49.32
35649;BME280;21768;48.562;13.414;2023-03-15T08:27:04;97265.47;;;12.29;46.03
35649;BME280;21768;48.562;13.414;2023-03-15T08:29:30;97264.03;;;11.75;46.42
35649;BME280;21768;48.562;13.414;2023-03-15T08:31:56;97270.63;;;10.75;48.74
35649;BME280;21768;48.562;13.414;2023-03-15T08:34:22;97272.72;;;10.16;49.45
35649;BME280;21768;48.562;13.414;2023-03-15T08:36:48;97274.41;;;10.81;47.92
35649;BME280;21768;48.562;13.414;2023-03-15T08:39:14;97266.56;;;11.75;45.99
35649;BME280;21768;48.562;13.414;2023-03-15T08:41:39;97262.97;;;13.07;42.25
35649;BME280;21768;48.562;13.414;2023-03-15T08:44:05;97264.69;;;13.23;42.55
35649;BME280;21768;48.562;13.414;2023-03-15T08:46:31;97265.59;;;12.47;43.83
35649;BME280;21768;48.562;13.414;2023-03-15T08:48:57;97271.06;;;11.94;45.15
35649;BME280;21768;48.562;13.414;2023-03-15T08:51:23;97268.44;;;11.92;45.54
35649;BME280;21768;48.562;13.414;2023-03-15T08:53:49;97279.00;;;13.39;43.54
35649;BME280;21768;48.562;13.414;2023-03-15T08:56:16;97268.09;;;13.56;42.84
35649;BME280;21768;48.562;13.414;2023-03-15T08:58:41;97277.84;;;13.99;43.41
35649;BME280;21768;48.562;13.414;2023-03-15T09:01:07;97276.78;;;13.77;41.07
35649;BME280;21768;48.562;13.414;2023-03-15T09:03:34;97278.47;;;13.13;41.12
35649;BME280;21768;48.562;13.414;2023-03-15T09:06:00;97288.59;;;12.06;43.04
35649;BME280;21768;48.562;13.414;2023-03-15T09:08:25;97292.34;;;10.86;44.43
35649;BME280;21768;48.562;13.414;2023-03-15T09:10:55;97302.38;;;9.94;46.35
35649;BME280;21768;48.562;13.414;2023-03-15T09:13:20;97322.75;;;9.47;47.54
35649;BME280;21768;48.562;13.414;2023-03-15T09:15:49;97320.31;;;9.24;47.78
35649;BME280;21768;48.562;13.414;2023-03-15T09:18:15;97322.50;;;8.82;48.69
35649;BME280;21768;48.562;13.414;2023-03-15T09:20:40;97320.00;;;8.82;49.23
35649;BME280;21768;48.562;13.414;2023-03-15T09:23:06;97321.09;;;8.86;48.68
35649;BME280;21768;48.562;13.414;2023-03-15T09:25:31;97322.41;;;8.81;48.97
35649;BME280;21768;48.562;13.414;2023-03-15T09:27:57;97332.81;;;8.50;48.69
35649;BME280;21768;48.562;13.414;2023-03-15T09:30:22;97337.69;;;8.14;50.29
35649;BME280;21768;48.562;13.414;2023-03-15T09:32:48;97335.03;;;8.01;50.81
35649;BME280;21768;48.562;13.414;2023-03-15T09:35:18;97317.56;;;10.20;47.64
35649;BME280;21768;48.562;13.414;2023-03-15T09:37:44;97317.56;;;12.86;41.43
35649;BME280;21768;48.562;13.414;2023-03-15T09:40:19;97317.25;;;12.96;40.68
35649;BME280;21768;48.562;13.414;2023-03-15T09:48:13;97312.19;;;15.52;36.90
35649;BME280;21768;48.562;13.414;2023-03-15T09:50:45;97315.34;;;13.88;38.36
35649;BME280;21768;48.562;13.414;2023-03-15T09:56:00;97326.47;;;11.76;41.55
35649;BME280;21768;48.562;13.414;2023-03-15T09:58:28;97321.53;;;14.79;37.29
35649;BME280;21768;48.562;13.414;2023-03-15T10:01:04;97310.69;;;16.98;34.33
35649;BME280;21768;48.562;13.414;2023-03-15T10:03:36;97304.19;;;17.98;30.90
35649;BME280;21768;48.562;13.414;2023-03-15T10:06:27;97305.91;;;19.91;29.65
35649;BME280;21768;48.562;13.414;2023-03-15T10:08:59;97313.81;;;18.83;28.40
35649;BME280;21768;48.562;13.414;2023-03-15T10:16:46;97332.09;;;12.59;37.61
35649;BME280;21768;48.562;13.414;2023-03-15T10:21:48;97331.41;;;12.92;37.34
35649;BME280;21768;48.562;13.414;2023-03-15T10:24:42;97327.25;;;17.09;32.57
35649;BME280;21768;48.562;13.414;2023-03-15T10:27:25;97314.41;;;19.01;28.35
35649;BME280;21768;48.562;13.414;2023-03-15T10:29:55;97325.31;;;17.48;29.65
35649;BME280;21768;48.562;13.414;2023-03-15T10:32:25;97316.28;;;15.87;29.38
35649;BME280;21768;48.562;13.414;2023-03-15T10:34:54;97325.25;;;15.59;30.40
35649;BME280;21768;48.562;13.414;2023-03-15T10:37:20;97327.81;;;15.22;29.78
35649;BME280;21768;48.562;13.414;2023-03-15T10:39:50;97327.41;;;13.76;33.02
35649;BME280;21768;48.562;13.414;2023-03-15T10:42:25;97339.03;;;12.78;33.64
35649;BME280;21768;48.562;13.414;2023-03-15T10:44:51;97340.97;;;11.93;35.65
35649;BME280;21768;48.562;13.414;2023-03-15T10:47:19;97351.81;;;11.50;37.02
35649;BME280;21768;48.562;13.414;2023-03-15T10:49:45;97341.66;;;12.79;34.92
35649;BME280;21768;48.562;13.414;2023-03-15T10:54:51;97348.84;;;14.15;32.06
35649;BME280;21768;48.562;13.414;2023-03-15T10:57:18;97357.50;;;12.91;33.07
35649;BME280;21768;48.562;13.414;2023-03-15T11:00:00;97351.16;;;11.67;34.59
35649;BME280;21768;48.562;13.414;2023-03-15T11:02:33;97363.78;;;10.98;35.87
35649;BME280;21768;48.562;13.414;2023-03-15T11:07:24;97357.91;;;12.39;33.63
35649;BME280;21768;48.562;13.414;2023-03-15T11:09:57;97347.94;;;11.98;34.07
35649;BME280;21768;48.562;13.414;2023-03-15T11:12:25;97355.13;;;11.08;35.17
35649;BME280;21768;48.562;13.414;2023-03-15T11:15:13;97357.47;;;10.91;35.96
35649;BME280;21768;48.562;13.414;2023-03-15T11:17:45;97369.41;;;10.68;36.89
35649;BME280;21768;48.562;13.414;2023-03-15T11:20:25;97362.75;;;11.36;36.70
35649;BME280;21768;48.562;13.414;2023-03-15T11:22:55;97364.44;;;12.06;36.06
35649;BME280;21768;48.562;13.414;2023-03-15T11:25:23;97361.34;;;11.54;36.64
35649;BME280;21768;48.562;13.414;2023-03-15T11:27:51;97358.72;;;10.98;36.94
35649;BME280;21768;48.562;13.414;2023-03-15T11:30:20;97369.88;;;10.49;38.04
35649;BME280;21768;48.562;13.414;2023-03-15T11:32:48;97363.19;;;10.36;37.19
35649;BME280;21768;48.562;13.414;2023-03-15T11:37:50;97362.47;;;11.31;35.22
35649;BME280;21768;48.562;13.414;2023-03-15T11:40:21;97362.81;;;10.83;36.71
35649;BME280;21768;48.562;13.414;2023-03-15T11:42:54;97355.72;;;10.38;37.44
35649;BME280;21768;48.562;13.414;2023-03-15T11:45:44;97347.13;;;12.12;36.65
35649;BME280;21768;48.562;13.414;2023-03-15T11:48:26;97338.94;;;14.37;33.89
35649;BME280;21768;48.562;13.414;2023-03-15T11:50:54;97343.25;;;15.64;30.83
35649;BME280;21768;48.562;13.414;2023-03-15T11:53:22;97337.16;;;17.92;27.65
35649;BME280;21768;48.562;13.414;2023-03-15T11:55:50;97330.03;;;18.33;27.34
35649;BME280;21768;48.562;13.414;2023-03-15T11:58:32;97324.03;;;19.67;24.76
35649;BME280;21768;48.562;13.414;2023-03-15T12:01:03;97319.88;;;18.60;25.66
35649;BME280;21768;48.562;13.414;2023-03-15T12:03:38;97325.44;;;18.23;25.71
35649;BME280;21768;48.562;13.414;2023-03-15T12:08:56;97329.38;;;16.15;29.77
35649;BME280;21768;48.562;13.414;2023-03-15T12:14:24;97323.34;;;13.95;31.37
35649;BME280;21768;48.562;13.414;2023-03-15T12:16:51;97328.47;;;13.16;32.32
35649;BME280;21768;48.562;13.414;2023-03-15T12:19:23;97330.41;;;12.74;33.26
35649;BME280;21768;48.562;13.414;2023-03-15T12:21:52;97325.28;;;12.43;33.77
35649;BME280;21768;48.562;13.414;2023-03-15T12:24:30;97317.59;;;11.98;33.81
35649;BME280;21768;48.562;13.414;2023-03-15T12:29:28;97318.38;;;11.54;34.05
35649;BME280;21768;48.562;13.414;2023-03-15T12:34:29;97319.75;;;11.49;34.67
35649;BME280;21768;48.562;13.414;2023-03-15T12:37:03;97315.19;;;11.43;35.05
35649;BME280;21768;48.562;13.414;2023-03-15T12:39:44;97307.69;;;11.30;35.26
35649;BME280;21768;48.562;13.414;2023-03-15T12:55:47;97295.00;;;9.97;36.56
35649;BME280;21768;48.562;13.414;2023-03-15T12:58:15;97305.69;;;9.68;36.30
35649;BME280;21768;48.562;13.414;2023-03-15T13:00:42;97307.94;;;9.63;37.96
35649;BME280;21768;48.562;13.414;2023-03-15T13:03:17;97303.22;;;9.81;36.77
35649;BME280;21768;48.562;13.414;2023-03-15T13:08:24;97305.31;;;11.05;35.72
35649;BME280;21768;48.562;13.414;2023-03-15T13:11:25;97292.47;;;11.15;33.93
35649;BME280;21768;48.562;13.414;2023-03-15T13:19:44;97291.66;;;11.30;35.94
35649;BME280;21768;48.562;13.414;2023-03-15T13:22:30;97283.72;;;11.66;34.43
35649;BME280;21768;48.562;13.414;2023-03-15T13:25:04;97282.56;;;12.04;35.49
35649;BME280;21768;48.562;13.414;2023-03-15T13:38:26;97282.56;;;12.33;34.24
35649;BME280;21768;48.562;13.414;2023-03-15T13:40:54;97283.16;;;12.75;34.00
35649;BME280;21768;48.562;13.414;2023-03-15T13:43:24;97296.53;;;13.03;34.36
35649;BME280;21768;48.562;13.414;2023-03-15T13:45:49;97285.91;;;13.25;33.16
35649;BME280;21768;48.562;13.414;2023-03-15T13:48:16;97288.47;;;13.10;33.88
35649;BME280;21768;48.562;13.414;2023-03-15T13:50:47;97288.88;;;12.87;33.93
35649;BME280;21768;48.562;13.414;2023-03-15T13:53:19;97299.28;;;12.60;34.80
35649;BME280;21768;48.562;13.414;2023-03-15T13:55:48;97300.78;;;12.27;34.48
35649;BME280;21768;48.562;13.414;2023-03-15T13:58:15;97309.50;;;12.03;34.96
35649;BME280;21768;48.562;13.414;2023-03-15T14:00:41;97313.06;;;11.77;35.37
35649;BME280;21768;48.562;13.414;2023-03-15T14:03:12;97313.25;;;11.39;34.89
35649;BME280;21768;48.562;13.414;2023-03-15T14:05:47;97308.44;;;11.01;35.38
35649;BME280;21768;48.562;13.414;2023-03-15T14:11:04;97305.44;;;10.67;36.50
35649;BME280;21768;48.562;13.414;2023-03-15T14:13:46;97308.84;;;10.41;35.66
35649;BME280;21768;48.562;13.414;2023-03-15T14:16:25;97309.22;;;10.21;36.38
35649;BME280;21768;48.562;13.414;2023-03-15T14:18:53;97314.97;;;9.94;35.90
35649;BME280;21768;48.562;13.414;2023-03-15T14:21:29;97316.28;;;9.75;36.74